YKZ weather

Buttonville Municipal Airport
Toronto, Ontario, Canada

Public forecast

Using degrees Celsius for public forecast. Weather courtesy of forecast.io.

METAR (pilot weather report)

Retrieved 2018/09/21 19:00 UTC (7 minutes ago):

CYKZ 211900Z 23016G39KT 200V260 15SM BKN056 OVC110 31/19 A2965 RMK CU7AS1 CVCTV CLD EMBD SLP039 DENSITY ALT 2900FT

TAF (pilot weather forecast)

Retrieved 2018/09/21 18:39 UTC (28 minutes ago):

TAF CYKZ 211738Z 2118/2206 23025G40KT P6SM SCT030 FM212000 23025G40KT P6SM -SHRA BKN030 TEMPO 2120/2122 VRB40G50KT 1SM +TSRA BR BKN008 OVC030CB FM212200 28020G35KT P6SM SCT030 FM220200 30015G25KT P6SM BKN030 RMK NXT FCST BY 220000Z